sensor_id;sensor_type;location;lat;lon;timestamp;P1;durP1;ratioP1;P2;durP2;ratioP2
76962;SDS011;65902;51.452;7.198;2022-12-11T00:00:47;33.95;;;17.20;;
76962;SDS011;65902;51.452;7.198;2022-12-11T00:01:48;38.28;;;19.52;;
76962;SDS011;65902;51.452;7.198;2022-12-11T00:02:48;39.67;;;22.08;;
76962;SDS011;65902;51.452;7.198;2022-12-11T00:03:49;28.73;;;17.67;;
76962;SDS011;65902;51.452;7.198;2022-12-11T00:04:49;42.45;;;21.75;;
76962;SDS011;65902;51.452;7.198;2022-12-11T00:05:50;37.40;;;19.38;;
76962;SDS011;65902;51.452;7.198;2022-12-11T00:06:51;39.03;;;22.25;;
76962;SDS011;65902;51.452;7.198;2022-12-11T00:07:54;36.67;;;17.65;;
76962;SDS011;65902;51.452;7.198;2022-12-11T00:10:00;35.15;;;18.58;;
76962;SDS011;65902;51.452;7.198;2022-12-11T00:11:01;39.55;;;22.35;;
76962;SDS011;65902;51.452;7.198;2022-12-11T00:12:02;33.97;;;20.95;;
76962;SDS011;65902;51.452;7.198;2022-12-11T00:13:04;33.33;;;17.88;;
76962;SDS011;65902;51.452;7.198;2022-12-11T00:14:05;28.50;;;19.80;;
76962;SDS011;65902;51.452;7.198;2022-12-11T00:15:05;31.33;;;16.92;;
76962;SDS011;65902;51.452;7.198;2022-12-11T00:16:06;30.77;;;19.67;;
76962;SDS011;65902;51.452;7.198;2022-12-11T00:17:10;26.80;;;16.33;;
76962;SDS011;65902;51.452;7.198;2022-12-11T00:18:13;29.40;;;17.20;;
76962;SDS011;65902;51.452;7.198;2022-12-11T00:19:16;31.08;;;19.20;;
76962;SDS011;65902;51.452;7.198;2022-12-11T00:20:17;23.95;;;16.67;;
76962;SDS011;65902;51.452;7.198;2022-12-11T00:21:17;32.55;;;21.50;;
76962;SDS011;65902;51.452;7.198;2022-12-11T00:22:18;29.77;;;16.90;;
76962;SDS011;65902;51.452;7.198;2022-12-11T00:23:19;25.35;;;16.25;;
76962;SDS011;65902;51.452;7.198;2022-12-11T00:24:19;34.45;;;16.98;;
76962;SDS011;65902;51.452;7.198;2022-12-11T00:25:24;28.45;;;17.17;;
76962;SDS011;65902;51.452;7.198;2022-12-11T00:26:25;32.13;;;15.50;;
76962;SDS011;65902;51.452;7.198;2022-12-11T00:27:26;22.42;;;16.52;;
76962;SDS011;65902;51.452;7.198;2022-12-11T00:28:26;37.17;;;15.82;;
76962;SDS011;65902;51.452;7.198;2022-12-11T00:29:29;29.00;;;16.50;;
76962;SDS011;65902;51.452;7.198;2022-12-11T00:30:30;40.22;;;19.00;;
76962;SDS011;65902;51.452;7.198;2022-12-11T00:31:30;28.90;;;18.00;;
76962;SDS011;65902;51.452;7.198;2022-12-11T00:32:31;34.33;;;18.20;;
76962;SDS011;65902;51.452;7.198;2022-12-11T00:33:35;37.58;;;17.60;;
76962;SDS011;65902;51.452;7.198;2022-12-11T00:34:35;32.40;;;18.42;;
76962;SDS011;65902;51.452;7.198;2022-12-11T00:35:38;32.90;;;16.63;;
76962;SDS011;65902;51.452;7.198;2022-12-11T00:36:44;34.22;;;18.40;;
76962;SDS011;65902;51.452;7.198;2022-12-11T00:37:44;33.33;;;17.33;;
76962;SDS011;65902;51.452;7.198;2022-12-11T00:38:45;31.27;;;18.50;;
76962;SDS011;65902;51.452;7.198;2022-12-11T00:39:49;42.55;;;18.60;;
76962;SDS011;65902;51.452;7.198;2022-12-11T00:40:49;34.97;;;17.50;;
76962;SDS011;65902;51.452;7.198;2022-12-11T00:41:50;33.03;;;18.27;;
76962;SDS011;65902;51.452;7.198;2022-12-11T00:42:51;35.13;;;19.65;;
76962;SDS011;65902;51.452;7.198;2022-12-11T00:43:59;39.40;;;17.20;;
76962;SDS011;65902;51.452;7.198;2022-12-11T00:45:08;39.13;;;21.67;;
76962;SDS011;65902;51.452;7.198;2022-12-11T00:46:09;33.53;;;17.25;;
76962;SDS011;65902;51.452;7.198;2022-12-11T00:47:10;34.33;;;20.02;;
76962;SDS011;65902;51.452;7.198;2022-12-11T00:48:11;34.92;;;16.88;;
76962;SDS011;65902;51.452;7.198;2022-12-11T00:49:12;36.83;;;16.67;;
76962;SDS011;65902;51.452;7.198;2022-12-11T00:50:13;29.38;;;17.77;;
76962;SDS011;65902;51.452;7.198;2022-12-11T00:51:16;29.25;;;18.20;;
76962;SDS011;65902;51.452;7.198;2022-12-11T00:52:17;30.23;;;16.50;;
76962;SDS011;65902;51.452;7.198;2022-12-11T00:53:17;30.42;;;15.45;;
76962;SDS011;65902;51.452;7.198;2022-12-11T00:54:18;33.22;;;18.67;;
76962;SDS011;65902;51.452;7.198;2022-12-11T00:55:18;31.42;;;22.20;;
76962;SDS011;65902;51.452;7.198;2022-12-11T00:56:20;39.83;;;29.52;;
76962;SDS011;65902;51.452;7.198;2022-12-11T00:57:21;40.50;;;19.73;;
76962;SDS011;65902;51.452;7.198;2022-12-11T00:58:22;40.75;;;26.15;;
76962;SDS011;65902;51.452;7.198;2022-12-11T00:59:26;41.08;;;21.63;;
76962;SDS011;65902;51.452;7.198;2022-12-11T01:00:27;41.17;;;21.08;;
76962;SDS011;65902;51.452;7.198;2022-12-11T01:01:28;40.63;;;20.08;;
76962;SDS011;65902;51.452;7.198;2022-12-11T01:02:29;44.75;;;19.48;;
76962;SDS011;65902;51.452;7.198;2022-12-11T01:03:29;38.17;;;19.73;;
76962;SDS011;65902;51.452;7.198;2022-12-11T01:04:34;41.95;;;19.38;;
76962;SDS011;65902;51.452;7.198;2022-12-11T01:05:37;42.92;;;21.35;;
76962;SDS011;65902;51.452;7.198;2022-12-11T01:06:38;43.35;;;22.05;;
76962;SDS011;65902;51.452;7.198;2022-12-11T01:07:38;44.25;;;20.60;;
76962;SDS011;65902;51.452;7.198;2022-12-11T01:08:39;48.67;;;21.13;;
76962;SDS011;65902;51.452;7.198;2022-12-11T01:09:43;42.25;;;20.88;;
76962;SDS011;65902;51.452;7.198;2022-12-11T01:11:03;40.50;;;17.63;;
76962;SDS011;65902;51.452;7.198;2022-12-11T01:12:07;44.55;;;18.58;;
76962;SDS011;65902;51.452;7.198;2022-12-11T01:13:10;46.97;;;19.08;;
76962;SDS011;65902;51.452;7.198;2022-12-11T01:14:11;48.25;;;22.77;;
76962;SDS011;65902;51.452;7.198;2022-12-11T01:15:14;43.53;;;27.35;;
76962;SDS011;65902;51.452;7.198;2022-12-11T01:16:15;44.85;;;18.95;;
76962;SDS011;65902;51.452;7.198;2022-12-11T01:17:16;48.78;;;20.10;;
76962;SDS011;65902;51.452;7.198;2022-12-11T01:18:16;50.83;;;22.05;;
76962;SDS011;65902;51.452;7.198;2022-12-11T01:19:17;54.60;;;20.08;;
76962;SDS011;65902;51.452;7.198;2022-12-11T01:20:23;50.13;;;24.35;;
76962;SDS011;65902;51.452;7.198;2022-12-11T01:21:27;49.22;;;25.65;;
76962;SDS011;65902;51.452;7.198;2022-12-11T01:22:32;50.38;;;23.23;;
76962;SDS011;65902;51.452;7.198;2022-12-11T01:23:33;51.13;;;23.10;;
76962;SDS011;65902;51.452;7.198;2022-12-11T01:24:38;45.42;;;19.00;;
76962;SDS011;65902;51.452;7.198;2022-12-11T01:25:41;40.42;;;19.13;;
76962;SDS011;65902;51.452;7.198;2022-12-11T01:26:42;56.38;;;27.67;;
76962;SDS011;65902;51.452;7.198;2022-12-11T01:27:45;54.95;;;21.80;;
76962;SDS011;65902;51.452;7.198;2022-12-11T01:28:47;47.08;;;23.35;;
76962;SDS011;65902;51.452;7.198;2022-12-11T01:29:49;54.85;;;22.95;;
76962;SDS011;65902;51.452;7.198;2022-12-11T01:30:49;50.95;;;26.25;;
76962;SDS011;65902;51.452;7.198;2022-12-11T01:31:50;51.63;;;25.08;;
76962;SDS011;65902;51.452;7.198;2022-12-11T01:32:51;55.03;;;30.77;;
76962;SDS011;65902;51.452;7.198;2022-12-11T01:33:54;50.70;;;27.27;;
76962;SDS011;65902;51.452;7.198;2022-12-11T01:34:57;52.90;;;24.48;;
76962;SDS011;65902;51.452;7.198;2022-12-11T01:35:58;53.13;;;26.30;;
76962;SDS011;65902;51.452;7.198;2022-12-11T01:36:59;54.33;;;22.75;;
76962;SDS011;65902;51.452;7.198;2022-12-11T01:37:59;44.72;;;21.85;;
76962;SDS011;65902;51.452;7.198;2022-12-11T01:39:02;54.38;;;29.80;;
76962;SDS011;65902;51.452;7.198;2022-12-11T01:40:05;52.20;;;25.38;;
76962;SDS011;65902;51.452;7.198;2022-12-11T01:41:07;57.92;;;28.00;;
76962;SDS011;65902;51.452;7.198;2022-12-11T01:42:09;49.25;;;21.88;;
76962;SDS011;65902;51.452;7.198;2022-12-11T01:43:16;56.90;;;26.73;;
76962;SDS011;65902;51.452;7.198;2022-12-11T01:46:20;55.17;;;21.95;;
76962;SDS011;65902;51.452;7.198;2022-12-11T01:47:23;58.95;;;22.90;;
76962;SDS011;65902;51.452;7.198;2022-12-11T01:48:30;55.78;;;24.42;;
76962;SDS011;65902;51.452;7.198;2022-12-11T01:49:31;55.42;;;24.85;;
76962;SDS011;65902;51.452;7.198;2022-12-11T01:50:33;57.63;;;23.50;;
76962;SDS011;65902;51.452;7.198;2022-12-11T01:51:52;62.20;;;25.42;;
76962;SDS011;65902;51.452;7.198;2022-12-11T01:53:00;50.92;;;32.30;;
76962;SDS011;65902;51.452;7.198;2022-12-11T01:55:06;63.63;;;35.15;;
76962;SDS011;65902;51.452;7.198;2022-12-11T01:56:08;45.72;;;23.33;;
76962;SDS011;65902;51.452;7.198;2022-12-11T01:57:09;58.78;;;25.23;;
76962;SDS011;65902;51.452;7.198;2022-12-11T01:58:12;59.70;;;29.45;;
76962;SDS011;65902;51.452;7.198;2022-12-11T01:59:16;60.08;;;27.42;;
76962;SDS011;65902;51.452;7.198;2022-12-11T02:00:23;58.33;;;25.58;;
76962;SDS011;65902;51.452;7.198;2022-12-11T02:02:39;59.38;;;27.65;;
76962;SDS011;65902;51.452;7.198;2022-12-11T02:03:39;45.55;;;30.67;;
76962;SDS011;65902;51.452;7.198;2022-12-11T02:04:40;57.75;;;26.75;;
76962;SDS011;65902;51.452;7.198;2022-12-11T02:05:43;56.72;;;27.02;;
76962;SDS011;65902;51.452;7.198;2022-12-11T02:06:46;49.28;;;26.48;;
76962;SDS011;65902;51.452;7.198;2022-12-11T02:07:49;46.60;;;24.25;;
76962;SDS011;65902;51.452;7.198;2022-12-11T02:08:53;48.03;;;22.73;;
76962;SDS011;65902;51.452;7.198;2022-12-11T02:09:58;50.30;;;26.23;;
76962;SDS011;65902;51.452;7.198;2022-12-11T02:11:15;60.60;;;31.10;;
76962;SDS011;65902;51.452;7.198;2022-12-11T02:14:46;56.03;;;22.58;;
76962;SDS011;65902;51.452;7.198;2022-12-11T02:16:00;52.40;;;27.00;;
76962;SDS011;65902;51.452;7.198;2022-12-11T02:17:18;52.55;;;23.52;;
76962;SDS011;65902;51.452;7.198;2022-12-11T02:18:33;49.80;;;23.73;;
76962;SDS011;65902;51.452;7.198;2022-12-11T02:20:57;61.42;;;29.02;;
76962;SDS011;65902;51.452;7.198;2022-12-11T02:22:17;59.03;;;23.67;;
76962;SDS011;65902;51.452;7.198;2022-12-11T02:25:02;44.63;;;21.83;;
76962;SDS011;65902;51.452;7.198;2022-12-11T02:28:55;59.05;;;28.75;;
76962;SDS011;65902;51.452;7.198;2022-12-11T02:30:02;60.75;;;31.00;;
76962;SDS011;65902;51.452;7.198;2022-12-11T02:31:09;64.45;;;28.90;;
76962;SDS011;65902;51.452;7.198;2022-12-11T02:32:33;56.53;;;28.77;;
76962;SDS011;65902;51.452;7.198;2022-12-11T02:33:44;47.63;;;21.77;;
76962;SDS011;65902;51.452;7.198;2022-12-11T02:34:51;53.42;;;21.63;;
76962;SDS011;65902;51.452;7.198;2022-12-11T02:35:59;68.85;;;29.27;;
76962;SDS011;65902;51.452;7.198;2022-12-11T02:37:02;54.42;;;24.30;;
76962;SDS011;65902;51.452;7.198;2022-12-11T02:38:18;56.65;;;25.67;;
76962;SDS011;65902;51.452;7.198;2022-12-11T02:39:23;64.85;;;30.08;;
76962;SDS011;65902;51.452;7.198;2022-12-11T02:40:27;66.22;;;26.35;;
76962;SDS011;65902;51.452;7.198;2022-12-11T02:41:31;58.13;;;26.50;;
76962;SDS011;65902;51.452;7.198;2022-12-11T02:42:33;60.65;;;24.65;;
76962;SDS011;65902;51.452;7.198;2022-12-11T02:43:39;60.63;;;26.25;;
76962;SDS011;65902;51.452;7.198;2022-12-11T02:44:41;61.72;;;25.65;;
76962;SDS011;65902;51.452;7.198;2022-12-11T02:45:43;65.63;;;28.33;;
76962;SDS011;65902;51.452;7.198;2022-12-11T02:46:46;66.25;;;27.42;;
76962;SDS011;65902;51.452;7.198;2022-12-11T02:47:46;62.55;;;37.70;;
76962;SDS011;65902;51.452;7.198;2022-12-11T02:48:48;61.22;;;24.27;;
76962;SDS011;65902;51.452;7.198;2022-12-11T02:49:52;59.38;;;26.23;;
76962;SDS011;65902;51.452;7.198;2022-12-11T02:50:56;58.92;;;24.38;;
76962;SDS011;65902;51.452;7.198;2022-12-11T02:51:59;62.65;;;24.80;;
76962;SDS011;65902;51.452;7.198;2022-12-11T02:53:03;57.05;;;23.48;;
76962;SDS011;65902;51.452;7.198;2022-12-11T02:54:09;62.15;;;24.63;;
76962;SDS011;65902;51.452;7.198;2022-12-11T02:55:16;62.33;;;24.67;;
76962;SDS011;65902;51.452;7.198;2022-12-11T02:56:19;63.72;;;30.90;;
76962;SDS011;65902;51.452;7.198;2022-12-11T02:57:41;57.58;;;25.33;;
76962;SDS011;65902;51.452;7.198;2022-12-11T02:58:54;53.80;;;24.45;;
76962;SDS011;65902;51.452;7.198;2022-12-11T03:00:00;55.25;;;23.45;;
76962;SDS011;65902;51.452;7.198;2022-12-11T03:01:00;68.50;;;34.53;;
76962;SDS011;65902;51.452;7.198;2022-12-11T03:02:01;54.60;;;23.25;;
76962;SDS011;65902;51.452;7.198;2022-12-11T03:03:04;54.25;;;25.35;;
76962;SDS011;65902;51.452;7.198;2022-12-11T03:04:07;60.72;;;25.83;;
76962;SDS011;65902;51.452;7.198;2022-12-11T03:05:11;50.40;;;19.23;;
76962;SDS011;65902;51.452;7.198;2022-12-11T03:06:14;31.77;;;20.05;;
76962;SDS011;65902;51.452;7.198;2022-12-11T03:07:20;46.28;;;23.08;;
76962;SDS011;65902;51.452;7.198;2022-12-11T03:08:25;43.25;;;22.63;;
76962;SDS011;65902;51.452;7.198;2022-12-11T03:09:27;39.55;;;23.35;;
76962;SDS011;65902;51.452;7.198;2022-12-11T03:10:28;48.85;;;20.15;;
76962;SDS011;65902;51.452;7.198;2022-12-11T03:11:29;44.20;;;23.67;;
76962;SDS011;65902;51.452;7.198;2022-12-11T03:12:30;40.10;;;22.30;;
76962;SDS011;65902;51.452;7.198;2022-12-11T03:13:32;44.67;;;20.95;;
76962;SDS011;65902;51.452;7.198;2022-12-11T03:14:33;43.13;;;22.92;;
76962;SDS011;65902;51.452;7.198;2022-12-11T03:16:19;38.90;;;22.92;;
76962;SDS011;65902;51.452;7.198;2022-12-11T03:17:13;40.72;;;17.70;;
76962;SDS011;65902;51.452;7.198;2022-12-11T03:18:22;37.00;;;18.63;;
76962;SDS011;65902;51.452;7.198;2022-12-11T03:21:03;36.38;;;15.45;;
76962;SDS011;65902;51.452;7.198;2022-12-11T03:22:10;36.28;;;18.70;;
76962;SDS011;65902;51.452;7.198;2022-12-11T03:24:57;45.17;;;22.65;;
76962;SDS011;65902;51.452;7.198;2022-12-11T03:26:07;38.13;;;26.33;;
76962;SDS011;65902;51.452;7.198;2022-12-11T03:27:18;33.03;;;20.55;;
76962;SDS011;65902;51.452;7.198;2022-12-11T03:29:37;37.38;;;20.33;;
76962;SDS011;65902;51.452;7.198;2022-12-11T03:30:44;33.03;;;16.77;;
76962;SDS011;65902;51.452;7.198;2022-12-11T03:31:51;32.15;;;17.08;;
76962;SDS011;65902;51.452;7.198;2022-12-11T03:33:01;36.72;;;18.25;;
76962;SDS011;65902;51.452;7.198;2022-12-11T03:34:09;34.72;;;19.83;;
76962;SDS011;65902;51.452;7.198;2022-12-11T03:36:37;40.10;;;21.50;;
76962;SDS011;65902;51.452;7.198;2022-12-11T03:37:41;38.38;;;19.85;;
76962;SDS011;65902;51.452;7.198;2022-12-11T03:38:49;43.95;;;17.38;;
76962;SDS011;65902;51.452;7.198;2022-12-11T03:39:55;37.92;;;18.08;;
76962;SDS011;65902;51.452;7.198;2022-12-11T03:41:03;36.20;;;19.25;;
76962;SDS011;65902;51.452;7.198;2022-12-11T03:42:05;36.50;;;16.60;;
76962;SDS011;65902;51.452;7.198;2022-12-11T03:44:10;36.25;;;18.50;;
76962;SDS011;65902;51.452;7.198;2022-12-11T03:45:14;45.60;;;21.60;;
76962;SDS011;65902;51.452;7.198;2022-12-11T03:46:16;33.50;;;20.60;;
76962;SDS011;65902;51.452;7.198;2022-12-11T03:47:20;33.50;;;18.75;;
76962;SDS011;65902;51.452;7.198;2022-12-11T03:48:23;34.47;;;20.73;;
76962;SDS011;65902;51.452;7.198;2022-12-11T03:49:32;44.00;;;25.50;;
76962;SDS011;65902;51.452;7.198;2022-12-11T03:50:37;45.90;;;20.48;;
76962;SDS011;65902;51.452;7.198;2022-12-11T03:51:39;36.88;;;19.40;;
76962;SDS011;65902;51.452;7.198;2022-12-11T03:52:43;41.92;;;21.85;;
76962;SDS011;65902;51.452;7.198;2022-12-11T03:53:45;39.40;;;19.42;;
76962;SDS011;65902;51.452;7.198;2022-12-11T03:54:47;40.10;;;18.50;;
76962;SDS011;65902;51.452;7.198;2022-12-11T03:55:49;38.20;;;20.95;;
76962;SDS011;65902;51.452;7.198;2022-12-11T03:56:52;38.20;;;25.25;;
76962;SDS011;65902;51.452;7.198;2022-12-11T03:57:58;36.67;;;18.63;;
76962;SDS011;65902;51.452;7.198;2022-12-11T03:58:58;37.25;;;20.25;;
76962;SDS011;65902;51.452;7.198;2022-12-11T03:59:59;40.47;;;18.88;;
76962;SDS011;65902;51.452;7.198;2022-12-11T04:01:00;33.63;;;18.58;;
76962;SDS011;65902;51.452;7.198;2022-12-11T04:02:03;42.42;;;21.13;;
76962;SDS011;65902;51.452;7.198;2022-12-11T04:03:09;37.45;;;19.02;;
76962;SDS011;65902;51.452;7.198;2022-12-11T04:04:13;39.03;;;26.52;;
76962;SDS011;65902;51.452;7.198;2022-12-11T04:05:13;40.92;;;22.10;;
76962;SDS011;65902;51.452;7.198;2022-12-11T04:06:14;40.28;;;20.00;;
76962;SDS011;65902;51.452;7.198;2022-12-11T04:07:17;36.55;;;21.45;;
76962;SDS011;65902;51.452;7.198;2022-12-11T04:08:18;38.58;;;22.98;;
76962;SDS011;65902;51.452;7.198;2022-12-11T04:09:20;35.65;;;17.70;;
76962;SDS011;65902;51.452;7.198;2022-12-11T04:10:20;34.50;;;17.08;;
76962;SDS011;65902;51.452;7.198;2022-12-11T04:11:21;27.73;;;16.55;;
76962;SDS011;65902;51.452;7.198;2022-12-11T04:12:35;34.83;;;19.83;;
76962;SDS011;65902;51.452;7.198;2022-12-11T04:13:36;29.70;;;15.55;;
76962;SDS011;65902;51.452;7.198;2022-12-11T04:14:38;30.58;;;20.38;;
76962;SDS011;65902;51.452;7.198;2022-12-11T04:15:57;30.30;;;18.02;;
76962;SDS011;65902;51.452;7.198;2022-12-11T04:16:58;31.05;;;16.17;;
76962;SDS011;65902;51.452;7.198;2022-12-11T04:17:59;36.13;;;16.10;;
76962;SDS011;65902;51.452;7.198;2022-12-11T04:19:21;33.03;;;19.30;;
76962;SDS011;65902;51.452;7.198;2022-12-11T04:20:41;29.98;;;17.80;;
76962;SDS011;65902;51.452;7.198;2022-12-11T04:22:00;29.33;;;18.42;;
76962;SDS011;65902;51.452;7.198;2022-12-11T04:23:33;29.63;;;17.33;;
76962;SDS011;65902;51.452;7.198;2022-12-11T04:24:52;34.05;;;19.83;;
76962;SDS011;65902;51.452;7.198;2022-12-11T04:26:02;27.15;;;15.40;;
76962;SDS011;65902;51.452;7.198;2022-12-11T04:27:14;31.73;;;17.40;;
76962;SDS011;65902;51.452;7.198;2022-12-11T04:28:35;40.42;;;17.42;;
76962;SDS011;65902;51.452;7.198;2022-12-11T04:29:38;32.65;;;20.77;;
76962;SDS011;65902;51.452;7.198;2022-12-11T04:30:39;36.03;;;18.20;;
76962;SDS011;65902;51.452;7.198;2022-12-11T04:31:42;32.55;;;18.60;;
76962;SDS011;65902;51.452;7.198;2022-12-11T04:32:42;42.85;;;18.77;;
76962;SDS011;65902;51.452;7.198;2022-12-11T04:33:43;34.63;;;17.65;;
76962;SDS011;65902;51.452;7.198;2022-12-11T04:34:43;37.25;;;16.65;;
76962;SDS011;65902;51.452;7.198;2022-12-11T04:35:46;34.58;;;17.38;;
76962;SDS011;65902;51.452;7.198;2022-12-11T04:36:47;27.27;;;16.15;;
76962;SDS011;65902;51.452;7.198;2022-12-11T04:37:50;29.17;;;16.85;;
76962;SDS011;65902;51.452;7.198;2022-12-11T04:38:51;35.97;;;18.95;;
76962;SDS011;65902;51.452;7.198;2022-12-11T04:39:51;39.17;;;19.33;;
76962;SDS011;65902;51.452;7.198;2022-12-11T04:40:58;39.05;;;17.67;;
76962;SDS011;65902;51.452;7.198;2022-12-11T04:42:03;40.55;;;19.25;;
76962;SDS011;65902;51.452;7.198;2022-12-11T04:43:04;33.20;;;17.35;;
76962;SDS011;65902;51.452;7.198;2022-12-11T04:44:05;39.42;;;19.17;;
76962;SDS011;65902;51.452;7.198;2022-12-11T04:45:05;30.05;;;17.38;;
76962;SDS011;65902;51.452;7.198;2022-12-11T04:47:11;36.70;;;18.65;;
76962;SDS011;65902;51.452;7.198;2022-12-11T04:48:14;35.63;;;19.00;;
76962;SDS011;65902;51.452;7.198;2022-12-11T04:49:14;35.17;;;20.10;;
76962;SDS011;65902;51.452;7.198;2022-12-11T04:50:15;35.88;;;22.27;;
76962;SDS011;65902;51.452;7.198;2022-12-11T04:51:16;37.88;;;23.05;;
76962;SDS011;65902;51.452;7.198;2022-12-11T04:52:17;35.70;;;21.98;;
76962;SDS011;65902;51.452;7.198;2022-12-11T04:53:18;39.90;;;26.60;;
76962;SDS011;65902;51.452;7.198;2022-12-11T04:54:19;36.08;;;19.08;;
76962;SDS011;65902;51.452;7.198;2022-12-11T04:55:19;31.50;;;17.23;;
76962;SDS011;65902;51.452;7.198;2022-12-11T04:56:22;30.92;;;18.17;;
76962;SDS011;65902;51.452;7.198;2022-12-11T04:57:25;37.38;;;23.13;;
76962;SDS011;65902;51.452;7.198;2022-12-11T04:58:26;34.60;;;19.40;;
76962;SDS011;65902;51.452;7.198;2022-12-11T04:59:26;33.25;;;18.17;;
76962;SDS011;65902;51.452;7.198;2022-12-11T05:00:27;35.28;;;20.80;;
76962;SDS011;65902;51.452;7.198;2022-12-11T05:01:27;37.17;;;20.83;;
76962;SDS011;65902;51.452;7.198;2022-12-11T05:02:28;36.05;;;22.08;;
76962;SDS011;65902;51.452;7.198;2022-12-11T05:03:29;35.28;;;18.80;;
76962;SDS011;65902;51.452;7.198;2022-12-11T05:04:30;31.70;;;17.95;;
76962;SDS011;65902;51.452;7.198;2022-12-11T05:05:32;36.50;;;18.38;;
76962;SDS011;65902;51.452;7.198;2022-12-11T05:06:32;39.63;;;21.45;;
76962;SDS011;65902;51.452;7.198;2022-12-11T05:07:33;36.63;;;18.33;;
76962;SDS011;65902;51.452;7.198;2022-12-11T05:09:39;33.38;;;18.67;;
76962;SDS011;65902;51.452;7.198;2022-12-11T05:10:39;40.97;;;19.30;;
76962;SDS011;65902;51.452;7.198;2022-12-11T05:11:42;37.65;;;19.40;;
76962;SDS011;65902;51.452;7.198;2022-12-11T05:12:43;38.63;;;18.77;;
76962;SDS011;65902;51.452;7.198;2022-12-11T05:13:46;42.30;;;21.70;;
76962;SDS011;65902;51.452;7.198;2022-12-11T05:14:52;41.03;;;16.42;;
76962;SDS011;65902;51.452;7.198;2022-12-11T05:15:53;38.00;;;18.15;;
76962;SDS011;65902;51.452;7.198;2022-12-11T05:16:54;39.88;;;20.33;;
76962;SDS011;65902;51.452;7.198;2022-12-11T05:17:55;36.03;;;20.30;;
76962;SDS011;65902;51.452;7.198;2022-12-11T05:18:56;33.08;;;22.45;;
76962;SDS011;65902;51.452;7.198;2022-12-11T05:19:58;34.55;;;19.27;;
76962;SDS011;65902;51.452;7.198;2022-12-11T05:21:00;37.30;;;20.92;;
76962;SDS011;65902;51.452;7.198;2022-12-11T05:23:03;34.97;;;18.00;;
76962;SDS011;65902;51.452;7.198;2022-12-11T05:24:03;28.25;;;15.07;;
76962;SDS011;65902;51.452;7.198;2022-12-11T05:25:05;34.45;;;17.65;;
76962;SDS011;65902;51.452;7.198;2022-12-11T05:26:09;36.47;;;20.25;;
76962;SDS011;65902;51.452;7.198;2022-12-11T05:27:14;36.17;;;16.85;;
76962;SDS011;65902;51.452;7.198;2022-12-11T05:28:14;41.03;;;18.48;;
76962;SDS011;65902;51.452;7.198;2022-12-11T05:29:15;36.67;;;15.98;;
76962;SDS011;65902;51.452;7.198;2022-12-11T05:30:18;33.13;;;15.35;;
76962;SDS011;65902;51.452;7.198;2022-12-11T05:31:22;34.85;;;17.00;;
76962;SDS011;65902;51.452;7.198;2022-12-11T05:32:24;37.53;;;18.17;;
76962;SDS011;65902;51.452;7.198;2022-12-11T05:33:25;38.70;;;16.15;;
76962;SDS011;65902;51.452;7.198;2022-12-11T05:34:26;29.70;;;15.77;;
76962;SDS011;65902;51.452;7.198;2022-12-11T05:35:28;34.90;;;15.30;;
76962;SDS011;65902;51.452;7.198;2022-12-11T05:36:30;31.52;;;17.77;;
76962;SDS011;65902;51.452;7.198;2022-12-11T05:37:32;40.85;;;18.08;;
76962;SDS011;65902;51.452;7.198;2022-12-11T05:38:35;36.75;;;20.15;;
76962;SDS011;65902;51.452;7.198;2022-12-11T05:39:36;31.92;;;18.50;;
76962;SDS011;65902;51.452;7.198;2022-12-11T05:40:39;39.08;;;19.73;;
76962;SDS011;65902;51.452;7.198;2022-12-11T05:41:40;31.35;;;21.83;;
76962;SDS011;65902;51.452;7.198;2022-12-11T05:42:40;38.80;;;19.95;;
76962;SDS011;65902;51.452;7.198;2022-12-11T05:43:41;31.83;;;19.30;;
76962;SDS011;65902;51.452;7.198;2022-12-11T05:44:41;39.78;;;17.98;;
76962;SDS011;65902;51.452;7.198;2022-12-11T05:45:42;36.22;;;18.08;;
76962;SDS011;65902;51.452;7.198;2022-12-11T05:46:43;31.02;;;17.17;;
76962;SDS011;65902;51.452;7.198;2022-12-11T05:47:43;34.13;;;16.67;;
76962;SDS011;65902;51.452;7.198;2022-12-11T05:48:47;31.13;;;17.20;;
76962;SDS011;65902;51.452;7.198;2022-12-11T05:49:48;36.00;;;18.25;;
76962;SDS011;65902;51.452;7.198;2022-12-11T05:50:55;31.55;;;19.15;;
76962;SDS011;65902;51.452;7.198;2022-12-11T05:51:56;33.45;;;19.02;;
76962;SDS011;65902;51.452;7.198;2022-12-11T05:52:59;32.15;;;16.75;;
76962;SDS011;65902;51.452;7.198;2022-12-11T05:54:00;36.75;;;18.20;;
76962;SDS011;65902;51.452;7.198;2022-12-11T05:55:04;28.73;;;17.75;;
76962;SDS011;65902;51.452;7.198;2022-12-11T05:56:06;30.15;;;17.42;;
76962;SDS011;65902;51.452;7.198;2022-12-11T05:57:10;32.42;;;16.52;;
76962;SDS011;65902;51.452;7.198;2022-12-11T05:58:12;31.63;;;16.30;;
76962;SDS011;65902;51.452;7.198;2022-12-11T05:59:13;32.72;;;18.98;;
76962;SDS011;65902;51.452;7.198;2022-12-11T06:00:17;34.95;;;16.67;;
76962;SDS011;65902;51.452;7.198;2022-12-11T06:01:20;30.48;;;18.13;;
76962;SDS011;65902;51.452;7.198;2022-12-11T06:02:34;29.77;;;18.60;;
76962;SDS011;65902;51.452;7.198;2022-12-11T06:03:35;34.03;;;21.45;;
76962;SDS011;65902;51.452;7.198;2022-12-11T06:04:36;35.78;;;20.40;;
76962;SDS011;65902;51.452;7.198;2022-12-11T06:05:40;36.13;;;17.65;;
76962;SDS011;65902;51.452;7.198;2022-12-11T06:06:41;34.95;;;21.70;;
76962;SDS011;65902;51.452;7.198;2022-12-11T06:07:44;29.27;;;16.75;;
76962;SDS011;65902;51.452;7.198;2022-12-11T06:08:50;36.70;;;20.90;;
76962;SDS011;65902;51.452;7.198;2022-12-11T06:09:54;32.03;;;17.48;;
76962;SDS011;65902;51.452;7.198;2022-12-11T06:10:55;28.42;;;16.13;;
76962;SDS011;65902;51.452;7.198;2022-12-11T06:11:58;35.55;;;25.63;;
76962;SDS011;65902;51.452;7.198;2022-12-11T06:12:59;32.55;;;19.40;;
76962;SDS011;65902;51.452;7.198;2022-12-11T06:14:02;36.10;;;23.90;;
76962;SDS011;65902;51.452;7.198;2022-12-11T06:15:03;29.67;;;16.77;;
76962;SDS011;65902;51.452;7.198;2022-12-11T06:16:05;35.60;;;19.58;;
76962;SDS011;65902;51.452;7.198;2022-12-11T06:17:08;32.85;;;17.58;;
76962;SDS011;65902;51.452;7.198;2022-12-11T06:18:09;34.75;;;18.55;;
76962;SDS011;65902;51.452;7.198;2022-12-11T06:19:13;33.17;;;16.20;;
76962;SDS011;65902;51.452;7.198;2022-12-11T06:20:14;31.48;;;15.63;;
76962;SDS011;65902;51.452;7.198;2022-12-11T06:21:16;32.30;;;21.35;;
76962;SDS011;65902;51.452;7.198;2022-12-11T06:22:19;32.25;;;17.60;;
76962;SDS011;65902;51.452;7.198;2022-12-11T06:23:19;35.53;;;21.08;;
76962;SDS011;65902;51.452;7.198;2022-12-11T06:24:20;30.73;;;18.17;;
76962;SDS011;65902;51.452;7.198;2022-12-11T06:25:21;32.53;;;19.40;;
76962;SDS011;65902;51.452;7.198;2022-12-11T06:26:21;28.08;;;15.90;;
76962;SDS011;65902;51.452;7.198;2022-12-11T06:27:22;29.08;;;19.20;;
76962;SDS011;65902;51.452;7.198;2022-12-11T06:28:25;31.20;;;15.20;;
76962;SDS011;65902;51.452;7.198;2022-12-11T06:29:28;26.90;;;15.57;;
76962;SDS011;65902;51.452;7.198;2022-12-11T06:30:31;28.60;;;14.88;;
76962;SDS011;65902;51.452;7.198;2022-12-11T06:31:31;36.65;;;15.77;;
76962;SDS011;65902;51.452;7.198;2022-12-11T06:32:35;29.63;;;14.90;;
76962;SDS011;65902;51.452;7.198;2022-12-11T06:33:38;29.83;;;15.63;;
76962;SDS011;65902;51.452;7.198;2022-12-11T06:34:39;26.55;;;15.95;;
76962;SDS011;65902;51.452;7.198;2022-12-11T06:35:40;34.40;;;17.50;;